Time;durP1;ratioP1;P1;durP2;ratioP2;P2;SDS_P1;SDS_P2;PMS_P1;PMS_P2;Temp;Humidity;BMP_temperature;BMP_pressure;BME280_temperature;BME280_humidity;BME280_pressure;Samples;Min_cycle;Max_cycle;Signal;HPM_P1;HPM_P2
2024/04/10 00:01:05;;;;;;;3.05;2.40;;;;;;;;;;6308086;26;20027;-65
2024/04/10 00:03:57;;;;;;;2.85;2.60;;;;;;;;;;6290700;26;20008;-65
2024/04/10 00:06:48;;;;;;;5.88;2.25;;;;;;;;;;6266149;26;20011;-65
2024/04/10 00:09:39;;;;;;;5.50;2.70;;;;;;;;;;6267476;26;20015;-65
2024/04/10 00:12:30;;;;;;;3.47;2.13;;;;;;;;;;6236968;26;20004;-65
2024/04/10 00:15:21;;;;;;;1.80;1.65;;;;;;;;;;6267279;26;20034;-65
2024/04/10 00:18:12;;;;;;;2.58;2.05;;;;;;;;;;6267323;26;20018;-65
2024/04/10 00:21:04;;;;;;;25.77;3.53;;;;;;;;;;6267272;26;20105;-65
2024/04/10 00:23:55;;;;;;;2.60;1.75;;;;;;;;;;6267573;26;20047;-65
2024/04/10 00:26:53;;;;;;;2.42;1.85;;;;;;;;;;6267388;26;20351;-65
2024/04/10 00:29:44;;;;;;;5.38;2.83;;;;;;;;;;6267023;26;20040;-65
2024/04/10 00:32:35;;;;;;;4.38;2.53;;;;;;;;;;6267096;26;20081;-65
2024/04/10 00:35:26;;;;;;;3.75;2.85;;;;;;;;;;6266908;26;20082;-65
2024/04/10 00:38:17;;;;;;;2.35;1.95;;;;;;;;;;6267027;26;20004;-65
2024/04/10 00:41:08;;;;;;;3.50;2.65;;;;;;;;;;6266826;26;20325;-65
2024/04/10 00:43:59;;;;;;;3.92;1.77;;;;;;;;;;6267310;26;20004;-65
2024/04/10 00:46:50;;;;;;;5.80;2.38;;;;;;;;;;6267001;26;20291;-65
2024/04/10 00:49:42;;;;;;;4.95;2.83;;;;;;;;;;6266857;26;20077;-65
2024/04/10 00:52:35;;;;;;;4.75;2.25;;;;;;;;;;6236075;26;20011;-65
2024/04/10 00:55:27;;;;;;;8.15;2.13;;;;;;;;;;6236115;26;20018;-65
2024/04/10 00:58:18;;;;;;;4.00;2.70;;;;;;;;;;6266502;26;20000;-65
2024/04/10 01:01:12;;;;;;;2.92;2.00;;;;;;;;;;6266428;26;20020;-65
2024/04/10 01:04:04;;;;;;;4.47;2.22;;;;;;;;;;6266512;26;20077;-65
2024/04/10 01:06:55;;;;;;;5.15;2.50;;;;;;;;;;6236246;26;20004;-65
2024/04/10 01:09:46;;;;;;;4.30;2.47;;;;;;;;;;6266316;26;20011;-64
2024/04/10 01:12:39;;;;;;;6.82;3.35;;;;;;;;;;6266267;26;20012;-65
2024/04/10 01:15:30;;;;;;;4.43;2.05;;;;;;;;;;6266407;26;20032;-65
2024/04/10 01:18:22;;;;;;;3.92;1.88;;;;;;;;;;6268840;26;20016;-65
2024/04/10 01:21:13;;;;;;;4.68;2.33;;;;;;;;;;6239437;26;20016;-65
2024/04/10 01:24:04;;;;;;;7.38;3.33;;;;;;;;;;6239848;26;20405;-65
2024/04/10 01:26:55;;;;;;;6.85;3.45;;;;;;;;;;6239703;26;20016;-65
2024/04/10 01:29:46;;;;;;;5.32;2.88;;;;;;;;;;6269932;26;20044;-65
2024/04/10 01:32:37;;;;;;;9.77;2.42;;;;;;;;;;6269930;26;20008;-65
2024/04/10 01:35:29;;;;;;;6.07;2.28;;;;;;;;;;6269945;26;20004;-65
2024/04/10 01:38:20;;;;;;;7.15;2.72;;;;;;;;;;6270095;26;20323;-65
2024/04/10 01:41:11;;;;;;;4.07;2.50;;;;;;;;;;6269941;26;20015;-65
2024/04/10 01:44:02;;;;;;;5.25;1.88;;;;;;;;;;6269884;26;20004;-65
2024/04/10 01:46:53;;;;;;;3.28;2.33;;;;;;;;;;6270263;26;20013;-64
2024/04/10 01:49:44;;;;;;;4.20;2.75;;;;;;;;;;6269917;26;20005;-64
2024/04/10 01:52:35;;;;;;;15.02;3.05;;;;;;;;;;6269752;26;20579;-64
2024/04/10 01:55:26;;;;;;;2.50;2.25;;;;;;;;;;6269591;26;20004;-65
2024/04/10 01:58:17;;;;;;;10.15;3.15;;;;;;;;;;6269726;26;20028;-65
2024/04/10 02:01:08;;;;;;;2.67;2.13;;;;;;;;;;6269468;26;20008;-65
2024/04/10 02:03:59;;;;;;;3.67;1.92;;;;;;;;;;6270168;26;20360;-65
2024/04/10 02:06:50;;;;;;;4.75;2.55;;;;;;;;;;6269853;26;20363;-65
2024/04/10 02:09:41;;;;;;;4.45;2.20;;;;;;;;;;6269630;26;20004;-64
2024/04/10 02:12:32;;;;;;;7.63;2.95;;;;;;;;;;6269283;26;20023;-64
2024/04/10 02:15:23;;;;;;;30.40;2.53;;;;;;;;;;6269543;26;20358;-64
2024/04/10 02:18:14;;;;;;;1.50;1.40;;;;;;;;;;6269400;26;20014;-65
2024/04/10 02:21:05;;;;;;;3.47;2.47;;;;;;;;;;6269229;26;20008;-65
2024/04/10 02:23:56;;;;;;;3.22;2.30;;;;;;;;;;6270151;26;20044;-65
2024/04/10 02:26:47;;;;;;;23.45;4.20;;;;;;;;;;6269390;26;20442;-64
2024/04/10 02:29:38;;;;;;;7.85;2.88;;;;;;;;;;6237723;26;20019;-65
2024/04/10 02:32:29;;;;;;;3.42;1.90;;;;;;;;;;6269603;26;20365;-65
2024/04/10 02:35:20;;;;;;;11.68;3.33;;;;;;;;;;6239076;26;20250;-65
2024/04/10 02:38:12;;;;;;;6.45;2.92;;;;;;;;;;6269296;26;20028;-65
2024/04/10 02:41:04;;;;;;;3.83;1.73;;;;;;;;;;6269436;26;20004;-65
2024/04/10 02:43:55;;;;;;;5.25;3.13;;;;;;;;;;6239689;26;20016;-65
2024/04/10 02:46:46;;;;;;;6.55;3.05;;;;;;;;;;6269474;26;20346;-65
2024/04/10 02:49:37;;;;;;;5.72;2.55;;;;;;;;;;6269437;26;20016;-65
2024/04/10 02:52:28;;;;;;;8.57;3.08;;;;;;;;;;6269310;26;20004;-65
2024/04/10 02:55:19;;;;;;;3.88;1.92;;;;;;;;;;6269383;26;20004;-65
2024/04/10 02:58:13;;;;;;;3.50;2.05;;;;;;;;;;6269194;26;20004;-65
2024/04/10 03:01:04;;;;;;;7.38;2.90;;;;;;;;;;6267780;26;20164;-65
2024/04/10 03:03:55;;;;;;;2.58;1.60;;;;;;;;;;6269095;26;20004;-64
2024/04/10 03:06:48;;;;;;;20.05;3.45;;;;;;;;;;6269201;26;20004;-64
2024/04/10 03:09:40;;;;;;;10.98;2.90;;;;;;;;;;6268610;26;20066;-64
2024/04/10 03:12:31;;;;;;;6.10;1.90;;;;;;;;;;6300133;26;20004;-64
2024/04/10 03:15:22;;;;;;;9.00;1.80;;;;;;;;;;6309138;26;20044;-65
2024/04/10 03:18:13;;;;;;;4.63;1.55;;;;;;;;;;6309824;26;20048;-65
2024/04/10 03:21:04;;;;;;;5.95;2.00;;;;;;;;;;6308453;26;20019;-65
2024/04/10 03:23:55;;;;;;;7.43;1.77;;;;;;;;;;6310653;26;20035;-65
2024/04/10 03:26:46;;;;;;;5.70;1.30;;;;;;;;;;6309950;26;20012;-65
2024/04/10 03:29:37;;;;;;;3.70;1.67;;;;;;;;;;6310178;26;20000;-65
2024/04/10 03:32:31;;;;;;;10.02;2.92;;;;;;;;;;6279076;26;20032;-65
2024/04/10 03:35:22;;;;;;;12.95;2.42;;;;;;;;;;6310392;26;20003;-65
2024/04/10 03:38:13;;;;;;;8.60;1.45;;;;;;;;;;6309992;26;20018;-65
2024/04/10 03:41:04;;;;;;;3.45;1.50;;;;;;;;;;6309955;26;20004;-66
2024/04/10 03:43:55;;;;;;;1.95;1.42;;;;;;;;;;6310292;26;20003;-65
2024/04/10 03:46:47;;;;;;;4.40;2.45;;;;;;;;;;6309756;26;20018;-66
2024/04/10 03:49:38;;;;;;;1.67;1.08;;;;;;;;;;6278926;26;20011;-65
2024/04/10 03:52:29;;;;;;;4.53;1.52;;;;;;;;;;6309701;26;20004;-66
2024/04/10 03:55:20;;;;;;;5.47;2.55;;;;;;;;;;6309563;26;20036;-65
2024/04/10 03:58:11;;;;;;;9.63;2.72;;;;;;;;;;6309844;26;20007;-65
2024/04/10 04:01:02;;;;;;;9.98;1.90;;;;;;;;;;6309518;26;20035;-65
2024/04/10 04:03:53;;;;;;;11.57;2.50;;;;;;;;;;6309999;26;20445;-64
2024/04/10 04:06:45;;;;;;;4.55;1.98;;;;;;;;;;6309409;26;20019;-65
2024/04/10 04:09:35;;;;;;;1.92;1.70;;;;;;;;;;6309417;26;20031;-64
2024/04/10 04:12:26;;;;;;;4.47;1.90;;;;;;;;;;6309155;26;20014;-65
2024/04/10 04:15:17;;;;;;;2.35;2.05;;;;;;;;;;6309536;26;20362;-65
2024/04/10 04:18:09;;;;;;;8.13;2.05;;;;;;;;;;6309596;26;20003;-66
2024/04/10 04:21:00;;;;;;;5.57;1.85;;;;;;;;;;6309749;26;20003;-65
2024/04/10 04:23:52;;;;;;;2.72;2.17;;;;;;;;;;6309439;26;19999;-65
2024/04/10 04:26:43;;;;;;;11.20;1.83;;;;;;;;;;6309274;26;20384;-65
2024/04/10 04:29:35;;;;;;;4.75;2.15;;;;;;;;;;6309195;26;20091;-65
2024/04/10 04:32:26;;;;;;;7.95;2.15;;;;;;;;;;6309109;26;20003;-66
2024/04/10 04:35:17;;;;;;;10.18;2.50;;;;;;;;;;6309334;26;20007;-65
2024/04/10 04:38:09;;;;;;;6.05;2.40;;;;;;;;;;6309112;26;20000;-65
2024/04/10 04:41:00;;;;;;;21.63;3.60;;;;;;;;;;6309571;26;20068;-65
2024/04/10 04:43:51;;;;;;;5.93;2.60;;;;;;;;;;6307833;26;20011;-65
2024/04/10 04:46:42;;;;;;;10.82;2.67;;;;;;;;;;6309068;26;20011;-65
2024/04/10 04:49:33;;;;;;;16.35;2.75;;;;;;;;;;6309319;26;20445;-65
2024/04/10 04:52:24;;;;;;;3.20;2.28;;;;;;;;;;6307949;26;20093;-66
2024/04/10 04:55:15;;;;;;;4.10;2.70;;;;;;;;;;6308760;26;20032;-65
2024/04/10 04:58:06;;;;;;;3.80;2.00;;;;;;;;;;6308640;26;20016;-66
2024/04/10 05:00:57;;;;;;;6.22;3.13;;;;;;;;;;6309241;26;20018;-65
2024/04/10 05:06:57;;;;;;;2.33;2.10;;;;;;;;;;6308701;26;20004;-65
2024/04/10 05:09:50;;;;;;;2.35;1.88;;;;;;;;;;6308450;26;20004;-65
2024/04/10 05:12:42;;;;;;;4.32;2.60;;;;;;;;;;6308481;26;20437;-65
2024/04/10 05:15:33;;;;;;;7.18;2.85;;;;;;;;;;6277791;26;20384;-65
2024/04/10 05:18:24;;;;;;;4.80;2.05;;;;;;;;;;6308036;26;20003;-65
2024/04/10 05:21:15;;;;;;;4.75;2.08;;;;;;;;;;6308363;26;20003;-65
2024/04/10 05:24:06;;;;;;;2.20;1.45;;;;;;;;;;6308075;26;20011;-66
2024/04/10 05:26:57;;;;;;;2.90;1.67;;;;;;;;;;6308858;26;20008;-64
2024/04/10 05:30:06;;;;;;;3.53;1.67;;;;;;;;;;6307749;26;20043;-65
2024/04/10 05:32:57;;;;;;;9.05;1.50;;;;;;;;;;6308243;26;20003;-64
2024/04/10 05:35:59;;;;;;;1.00;0.80;;;;;;;;;;6304657;26;20007;-64
2024/04/10 05:38:50;;;;;;;2.47;1.40;;;;;;;;;;6308176;26;20018;-64
2024/04/10 05:41:41;;;;;;;5.53;1.20;;;;;;;;;;6307985;26;20468;-64
2024/04/10 05:44:33;;;;;;;0.80;0.75;;;;;;;;;;6307604;26;20018;-64
2024/04/10 05:47:24;;;;;;;3.35;1.77;;;;;;;;;;6307618;26;20080;-65
2024/04/10 05:50:17;;;;;;;5.03;1.92;;;;;;;;;;6307592;26;20008;-64
2024/04/10 05:53:08;;;;;;;6.18;2.25;;;;;;;;;;6307748;26;20019;-65
2024/04/10 05:56:06;;;;;;;3.40;1.80;;;;;;;;;;6307786;26;20015;-64
2024/04/10 05:58:57;;;;;;;13.63;1.40;;;;;;;;;;6308017;26;20441;-65
2024/04/10 06:01:48;;;;;;;6.05;1.88;;;;;;;;;;6307324;26;20003;-64
2024/04/10 06:04:39;;;;;;;6.55;1.75;;;;;;;;;;6309496;26;20004;-64
2024/04/10 06:07:35;;;;;;;19.38;2.28;;;;;;;;;;6312127;26;20003;-65
2024/04/10 06:10:26;;;;;;;6.43;2.03;;;;;;;;;;6311570;26;20004;-65
2024/04/10 06:13:17;;;;;;;14.52;2.53;;;;;;;;;;6311648;26;20060;-65
2024/04/10 06:16:08;;;;;;;3.92;1.85;;;;;;;;;;6311686;26;20032;-64
2024/04/10 06:18:59;;;;;;;3.67;1.85;;;;;;;;;;6311946;26;20003;-64
2024/04/10 06:21:50;;;;;;;1.38;1.05;;;;;;;;;;6311550;26;20003;-64
2024/04/10 06:24:43;;;;;;;6.10;1.77;;;;;;;;;;6311151;26;20000;-64
2024/04/10 06:27:34;;;;;;;1.77;1.48;;;;;;;;;;6311551;26;20017;-65
2024/04/10 06:30:25;;;;;;;2.72;1.60;;;;;;;;;;6311394;26;20014;-64
2024/04/10 06:33:16;;;;;;;4.07;1.73;;;;;;;;;;6311210;26;20003;-65
2024/04/10 06:36:08;;;;;;;4.88;2.03;;;;;;;;;;6310936;26;20522;-65
2024/04/10 06:38:59;;;;;;;6.47;2.05;;;;;;;;;;6311701;26;20014;-64
2024/04/10 06:41:50;;;;;;;4.03;1.65;;;;;;;;;;6311154;26;20035;-64
2024/04/10 06:44:41;;;;;;;3.00;1.25;;;;;;;;;;6310711;26;20018;-64
2024/04/10 06:47:32;;;;;;;3.72;2.22;;;;;;;;;;6310912;26;20437;-64
2024/04/10 06:50:26;;;;;;;4.95;2.30;;;;;;;;;;6310765;26;20117;-64
2024/04/10 06:53:17;;;;;;;2.42;1.33;;;;;;;;;;6310945;26;20022;-65
2024/04/10 06:56:09;;;;;;;3.88;1.90;;;;;;;;;;6280026;26;20341;-64
2024/04/10 06:59:01;;;;;;;10.55;0.93;;;;;;;;;;6311329;26;20004;-64
2024/04/10 07:01:52;;;;;;;1.60;0.90;;;;;;;;;;6310997;26;20003;-64
2024/04/10 07:04:46;;;;;;;7.55;2.30;;;;;;;;;;6310815;26;20015;-64
2024/04/10 07:07:39;;;;;;;2.42;1.80;;;;;;;;;;6310688;26;20299;-65
2024/04/10 07:10:30;;;;;;;5.57;2.15;;;;;;;;;;6310559;26;20011;-64
2024/04/10 07:13:20;;;;;;;14.25;1.42;;;;;;;;;;6310677;26;20038;-64
2024/04/10 07:16:12;;;;;;;1.25;1.13;;;;;;;;;;6310199;26;20359;-65
2024/04/10 07:19:05;;;;;;;2.17;1.38;;;;;;;;;;6310708;26;20391;-64
2024/04/10 07:21:56;;;;;;;1.80;1.38;;;;;;;;;;6310939;26;20318;-64
2024/04/10 07:24:50;;;;;;;2.40;1.23;;;;;;;;;;6310501;26;20451;-64
2024/04/10 07:27:41;;;;;;;11.25;2.60;;;;;;;;;;6310489;26;20015;-65
2024/04/10 07:30:31;;;;;;;4.78;1.60;;;;;;;;;;6310119;26;20031;-64
2024/04/10 07:33:23;;;;;;;5.93;1.58;;;;;;;;;;6310244;26;20014;-65
2024/04/10 07:36:18;;;;;;;1.20;1.00;;;;;;;;;;6310012;26;20015;-64
2024/04/10 07:39:10;;;;;;;2.58;1.15;;;;;;;;;;6310479;26;20018;-65
2024/04/10 07:42:00;;;;;;;3.90;2.00;;;;;;;;;;6310772;26;20345;-64
2024/04/10 07:44:52;;;;;;;2.72;1.40;;;;;;;;;;6310194;26;20039;-64
2024/04/10 07:47:43;;;;;;;2.88;1.45;;;;;;;;;;6310167;26;20003;-65
2024/04/10 07:50:34;;;;;;;4.03;1.02;;;;;;;;;;6309961;26;20482;-64
2024/04/10 07:53:25;;;;;;;2.33;1.63;;;;;;;;;;6309710;26;20446;-64
2024/04/10 07:56:15;;;;;;;1.27;0.70;;;;;;;;;;6309992;26;20401;-64
2024/04/10 07:59:06;;;;;;;0.90;0.82;;;;;;;;;;6278796;26;20014;-65
2024/04/10 08:01:57;;;;;;;3.40;1.33;;;;;;;;;;6310239;26;20019;-64
2024/04/10 08:04:48;;;;;;;2.90;1.27;;;;;;;;;;6309889;26;20011;-64
2024/04/10 08:07:39;;;;;;;4.38;1.75;;;;;;;;;;6309484;26;20361;-64
2024/04/10 08:10:31;;;;;;;1.85;1.13;;;;;;;;;;6309701;26;20487;-64
2024/04/10 08:13:24;;;;;;;6.32;1.75;;;;;;;;;;6309478;26;20015;-64
2024/04/10 08:16:19;;;;;;;1.10;1.00;;;;;;;;;;6278908;26;20039;-65
2024/04/10 08:19:10;;;;;;;10.02;1.45;;;;;;;;;;6308495;26;20076;-64
2024/04/10 08:22:01;;;;;;;2.33;1.25;;;;;;;;;;6295642;26;20003;-65
2024/04/10 08:24:52;;;;;;;4.75;1.35;;;;;;;;;;6308875;26;20031;-64
2024/04/10 08:27:46;;;;;;;1.17;0.88;;;;;;;;;;6305844;26;20426;-64
2024/04/10 08:30:41;;;;;;;11.07;1.40;;;;;;;;;;6297203;26;20047;-64
2024/04/10 08:33:34;;;;;;;0.30;0.30;;;;;;;;;;6309424;26;20015;-64
2024/04/10 08:36:27;;;;;;;0.38;0.38;;;;;;;;;;6309224;26;20004;-64
2024/04/10 08:39:18;;;;;;;17.33;1.25;;;;;;;;;;6309093;26;20446;-65
2024/04/10 08:42:14;;;;;;;1.38;0.98;;;;;;;;;;6309089;26;20003;-64
2024/04/10 08:45:06;;;;;;;3.35;0.98;;;;;;;;;;6278656;26;20014;-65
2024/04/10 08:48:00;;;;;;;2.45;1.40;;;;;;;;;;6278617;26;20010;-64
2024/04/10 08:52:02;;;;;;;26.73;1.58;;;;;;;;;;6255484;25;1202652;-66
2024/04/10 08:54:53;;;;;;;1.80;1.13;;;;;;;;;;6247492;26;20310;-64
2024/04/10 08:57:44;;;;;;;1.75;0.93;;;;;;;;;;6248069;26;20013;-65
2024/04/10 09:00:46;;;;;;;2.65;1.25;;;;;;;;;;6248049;26;20033;-64
2024/04/10 09:03:37;;;;;;;2.45;1.55;;;;;;;;;;6248175;26;20631;-64
2024/04/10 09:06:31;;;;;;;1.25;0.63;;;;;;;;;;6247855;26;20086;-64
2024/04/10 09:09:23;;;;;;;3.55;1.58;;;;;;;;;;6247669;26;20144;-65
2024/04/10 09:12:24;;;;;;;1.52;1.08;;;;;;;;;;6247842;26;20032;-65
2024/04/10 09:15:18;;;;;;;1.10;1.00;;;;;;;;;;6247887;26;20019;-65
2024/04/10 09:18:09;;;;;;;5.53;1.67;;;;;;;;;;6247699;26;20438;-65
2024/04/10 09:21:08;;;;;;;3.05;1.67;;;;;;;;;;6248197;26;20045;-65
2024/04/10 09:23:59;;;;;;;1.33;0.98;;;;;;;;;;6247853;26;20034;-64
2024/04/10 09:26:50;;;;;;;1.40;1.10;;;;;;;;;;6245802;26;20004;-64
2024/04/10 09:29:41;;;;;;;3.00;1.55;;;;;;;;;;6247525;26;20004;-65
2024/04/10 09:32:36;;;;;;;1.20;1.10;;;;;;;;;;6247384;26;20005;-65
2024/04/10 09:35:28;;;;;;;1.17;0.70;;;;;;;;;;6247482;26;20507;-65
2024/04/10 09:38:19;;;;;;;3.05;1.50;;;;;;;;;;6247384;26;20078;-64
2024/04/10 09:41:15;;;;;;;2.03;1.13;;;;;;;;;;6247131;26;20004;-65
2024/04/10 09:44:10;;;;;;;5.82;1.23;;;;;;;;;;6247587;26;20471;-65
2024/04/10 09:47:01;;;;;;;3.50;1.70;;;;;;;;;;6247712;26;20015;-65
2024/04/10 09:49:58;;;;;;;7.10;1.15;;;;;;;;;;6247289;26;20011;-65
2024/04/10 09:52:51;;;;;;;3.05;1.80;;;;;;;;;;6247403;26;20427;-65
2024/04/10 09:55:44;;;;;;;0.98;0.75;;;;;;;;;;6247301;26;20005;-65
2024/04/10 09:58:37;;;;;;;8.43;1.23;;;;;;;;;;6247090;26;20443;-65
2024/04/10 10:01:29;;;;;;;2.72;1.10;;;;;;;;;;6240329;26;20550;-65
2024/04/10 10:04:21;;;;;;;25.50;0.75;;;;;;;;;;6229417;26;20005;-65
2024/04/10 10:07:24;;;;;;;0.73;0.60;;;;;;;;;;6229932;26;20032;-65
2024/04/10 10:10:16;;;;;;;16.55;1.27;;;;;;;;;;6229513;26;20005;-65
2024/04/10 10:13:08;;;;;;;3.10;0.60;;;;;;;;;;6256378;26;20017;-65
2024/04/10 10:16:02;;;;;;;0.80;0.47;;;;;;;;;;6228134;26;20001;-65
2024/04/10 10:19:01;;;;;;;4.50;1.10;;;;;;;;;;6227555;26;20023;-65
2024/04/10 10:22:02;;;;;;;1.38;0.55;;;;;;;;;;6229613;26;20020;-65
2024/04/10 10:24:58;;;;;;;1.20;1.08;;;;;;;;;;6229554;26;20017;-64
2024/04/10 10:27:49;;;;;;;0.98;0.98;;;;;;;;;;6229092;26;20009;-65
2024/04/10 10:30:40;;;;;;;7.22;1.60;;;;;;;;;;6229266;26;20019;-65
2024/04/10 10:33:40;;;;;;;1.02;0.90;;;;;;;;;;6229056;26;20005;-64
2024/04/10 10:36:33;;;;;;;5.53;1.00;;;;;;;;;;6229041;26;20005;-65
2024/04/10 10:39:26;;;;;;;0.60;0.60;;;;;;;;;;6228975;26;20005;-65
2024/04/10 10:42:17;;;;;;;1.85;0.73;;;;;;;;;;6228995;26;20009;-65
2024/04/10 10:45:08;;;;;;;4.75;1.00;;;;;;;;;;6228955;26;20017;-65
2024/04/10 10:48:04;;;;;;;12.38;1.25;;;;;;;;;;6229500;26;20073;-65
2024/04/10 10:50:57;;;;;;;3.45;0.70;;;;;;;;;;6228982;26;20020;-65
2024/04/10 10:53:48;;;;;;;0.50;0.38;;;;;;;;;;6228745;26;20015;-65
2024/04/10 10:56:39;;;;;;;2.50;1.25;;;;;;;;;;6228944;26;20083;-65
2024/04/10 10:59:30;;;;;;;1.73;0.80;;;;;;;;;;6228891;26;20005;-65
2024/04/10 11:02:21;;;;;;;0.40;0.40;;;;;;;;;;6228476;26;20021;-65
2024/04/10 11:05:14;;;;;;;10.98;1.45;;;;;;;;;;6228683;26;20086;-65
2024/04/10 11:08:07;;;;;;;16.83;2.58;;;;;;;;;;6228487;26;20012;-65
2024/04/10 11:10:58;;;;;;;1.02;0.63;;;;;;;;;;6255653;26;20001;-65
2024/04/10 11:13:49;;;;;;;0.50;0.50;;;;;;;;;;6226729;26;20013;-65
2024/04/10 11:16:41;;;;;;;6.72;0.77;;;;;;;;;;6228627;26;20013;-65
2024/04/10 11:19:38;;;;;;;2.10;1.05;;;;;;;;;;6228611;26;20004;-65
2024/04/10 11:22:41;;;;;;;1.45;0.73;;;;;;;;;;6227036;26;20005;-65
2024/04/10 11:25:34;;;;;;;2.08;1.02;;;;;;;;;;6228436;26;20008;-65
2024/04/10 11:28:25;;;;;;;1.05;0.60;;;;;;;;;;6227973;26;20009;-65
2024/04/10 11:31:16;;;;;;;2.00;0.93;;;;;;;;;;6228058;26;20004;-65
2024/04/10 11:34:07;;;;;;;2.88;1.15;;;;;;;;;;6226643;26;20017;-65
2024/04/10 11:36:58;;;;;;;1.08;0.77;;;;;;;;;;6228503;26;20074;-65
2024/04/10 11:39:49;;;;;;;2.78;1.13;;;;;;;;;;6227936;26;20017;-65
2024/04/10 11:42:40;;;;;;;1.08;0.82;;;;;;;;;;6228361;26;20012;-65
2024/04/10 11:45:32;;;;;;;1.83;0.88;;;;;;;;;;6228107;26;20004;-65
2024/04/10 11:48:23;;;;;;;2.50;1.20;;;;;;;;;;6228057;26;20000;-65
2024/04/10 11:51:15;;;;;;;0.85;0.57;;;;;;;;;;6227687;26;20033;-65
2024/04/10 11:54:06;;;;;;;3.03;1.02;;;;;;;;;;6227823;26;20020;-66
2024/04/10 11:56:58;;;;;;;0.50;0.50;;;;;;;;;;6228379;26;20005;-64
2024/04/10 11:59:49;;;;;;;0.90;0.63;;;;;;;;;;6228067;26;20023;-64
2024/04/10 12:02:42;;;;;;;9.50;1.40;;;;;;;;;;6227685;26;20458;-65
2024/04/10 12:05:36;;;;;;;4.80;2.35;;;;;;;;;;6227990;26;20020;-65
2024/04/10 12:08:28;;;;;;;9.13;2.83;;;;;;;;;;6227584;26;20048;-65
2024/04/10 12:11:19;;;;;;;15.43;4.28;;;;;;;;;;6227575;26;20051;-65
2024/04/10 12:14:10;;;;;;;3.53;1.63;;;;;;;;;;6200101;26;20005;-65
2024/04/10 12:17:02;;;;;;;2.72;1.45;;;;;;;;;;6228192;26;20005;-65
2024/04/10 12:19:53;;;;;;;7.43;3.08;;;;;;;;;;6207981;26;20035;-65
2024/04/10 12:22:47;;;;;;;1.30;1.20;;;;;;;;;;6224557;26;20009;-65
2024/04/10 12:25:38;;;;;;;0.88;0.73;;;;;;;;;;6206719;26;20083;-65
2024/04/10 12:28:29;;;;;;;1.05;0.82;;;;;;;;;;6187611;26;20019;-65
2024/04/10 12:31:19;;;;;;;2.05;1.00;;;;;;;;;;6188252;26;20014;-65
2024/04/10 12:34:10;;;;;;;8.50;1.50;;;;;;;;;;6188014;26;20012;-65
2024/04/10 12:40:11;;;;;;;2.72;1.40;;;;;;;;;;6227975;26;20083;-65
2024/04/10 12:43:03;;;;;;;1.38;1.05;;;;;;;;;;6227511;26;20451;-66
2024/04/10 12:45:54;;;;;;;2.63;1.65;;;;;;;;;;6228072;26;20431;-65
2024/04/10 12:48:45;;;;;;;2.25;0.82;;;;;;;;;;6227731;26;20005;-64
2024/04/10 12:51:37;;;;;;;2.78;1.25;;;;;;;;;;6226343;26;20005;-65
2024/04/10 12:54:29;;;;;;;4.45;1.70;;;;;;;;;;6226398;26;20053;-65
2024/04/10 12:57:19;;;;;;;1.05;0.55;;;;;;;;;;6227493;26;21074;-65
2024/04/10 13:00:12;;;;;;;1.05;0.73;;;;;;;;;;6215062;26;20005;-65
2024/04/10 13:03:03;;;;;;;0.63;0.47;;;;;;;;;;6218341;26;20072;-65
2024/04/10 13:05:58;;;;;;;9.60;1.42;;;;;;;;;;6186814;26;20376;-65
2024/04/10 13:08:50;;;;;;;1.80;0.63;;;;;;;;;;6183509;26;20406;-64
2024/04/10 13:11:41;;;;;;;0.82;0.68;;;;;;;;;;6183903;26;20057;-64
2024/04/10 13:14:33;;;;;;;0.40;0.40;;;;;;;;;;6182711;26;20084;-65
2024/04/10 13:17:27;;;;;;;4.85;1.48;;;;;;;;;;6183022;26;20415;-65
2024/04/10 13:20:19;;;;;;;3.13;1.17;;;;;;;;;;6184345;26;20030;-65
2024/04/10 13:23:11;;;;;;;1.13;0.65;;;;;;;;;;6186448;26;20017;-65
2024/04/10 13:26:07;;;;;;;4.03;1.67;;;;;;;;;;6204049;26;20470;-65
2024/04/10 13:29:00;;;;;;;2.00;0.93;;;;;;;;;;6227080;26;20015;-65
2024/04/10 13:31:51;;;;;;;4.03;2.03;;;;;;;;;;6227421;26;20001;-65
2024/04/10 13:34:42;;;;;;;0.63;0.63;;;;;;;;;;6226792;26;20033;-65
2024/04/10 13:37:33;;;;;;;1.13;0.93;;;;;;;;;;6228517;26;20017;-65
2024/04/10 13:40:31;;;;;;;0.95;0.60;;;;;;;;;;6231308;26;20346;-64
2024/04/10 13:43:22;;;;;;;3.47;1.20;;;;;;;;;;6230286;26;20346;-65
2024/04/10 13:46:13;;;;;;;7.32;0.85;;;;;;;;;;6214300;26;20037;-65
2024/04/10 13:49:04;;;;;;;0.80;0.77;;;;;;;;;;6188739;26;20020;-65
2024/04/10 13:51:55;;;;;;;0.95;0.85;;;;;;;;;;6190957;26;20005;-64
2024/04/10 13:54:46;;;;;;;3.50;1.10;;;;;;;;;;6190526;26;20038;-65
2024/04/10 13:57:37;;;;;;;1.17;0.77;;;;;;;;;;6224324;26;20049;-64
2024/04/10 14:00:31;;;;;;;1.85;1.08;;;;;;;;;;6231262;26;20012;-65
2024/04/10 14:03:22;;;;;;;1.23;0.75;;;;;;;;;;6230415;26;20015;-64
2024/04/10 14:06:13;;;;;;;0.45;0.38;;;;;;;;;;6230376;26;20015;-65
2024/04/10 14:09:05;;;;;;;0.55;0.55;;;;;;;;;;6230389;26;20009;-65
2024/04/10 14:11:58;;;;;;;0.75;0.55;;;;;;;;;;6231335;26;20005;-65
2024/04/10 14:14:49;;;;;;;0.68;0.63;;;;;;;;;;6229711;26;20078;-64
2024/04/10 14:17:41;;;;;;;3.92;1.08;;;;;;;;;;6229985;26;20005;-65
2024/04/10 14:20:33;;;;;;;0.93;0.82;;;;;;;;;;6230622;26;20401;-65
2024/04/10 14:23:24;;;;;;;1.23;0.70;;;;;;;;;;6230285;26;20019;-65
2024/04/10 14:26:17;;;;;;;0.77;0.75;;;;;;;;;;6230108;26;20005;-65
2024/04/10 14:29:08;;;;;;;0.82;0.60;;;;;;;;;;6229482;26;20005;-65
2024/04/10 14:32:01;;;;;;;1.67;0.98;;;;;;;;;;6230500;26;20423;-64
2024/04/10 14:34:51;;;;;;;2.10;0.73;;;;;;;;;;6193882;26;20034;-65
2024/04/10 14:37:42;;;;;;;2.00;1.00;;;;;;;;;;6189327;26;20020;-65
2024/04/10 14:40:37;;;;;;;3.40;1.25;;;;;;;;;;6190397;26;20083;-65
2024/04/10 14:43:34;;;;;;;0.40;0.40;;;;;;;;;;6189009;26;20005;-65
2024/04/10 14:46:25;;;;;;;3.72;1.40;;;;;;;;;;6197154;26;20005;-64
2024/04/10 14:49:16;;;;;;;0.90;0.85;;;;;;;;;;6229302;26;20016;-65
2024/04/10 14:52:07;;;;;;;2.63;0.70;;;;;;;;;;6230073;26;20011;-65
2024/04/10 14:54:58;;;;;;;4.38;1.40;;;;;;;;;;6230060;26;20015;-65
2024/04/10 14:57:49;;;;;;;1.02;0.90;;;;;;;;;;6228147;26;20005;-64
2024/04/10 15:00:40;;;;;;;3.40;1.35;;;;;;;;;;6230133;26;20013;-65
2024/04/10 15:03:30;;;;;;;1.90;0.73;;;;;;;;;;6229710;26;20005;-64
2024/04/10 15:06:26;;;;;;;2.60;1.33;;;;;;;;;;6229022;26;20045;-65
2024/04/10 15:09:17;;;;;;;2.00;0.80;;;;;;;;;;6229297;26;20015;-65
2024/04/10 15:12:12;;;;;;;6.35;1.35;;;;;;;;;;6229495;26;20005;-65
2024/04/10 15:15:05;;;;;;;4.15;0.77;;;;;;;;;;6227100;26;20019;-65
2024/04/10 15:17:56;;;;;;;9.10;0.93;;;;;;;;;;6256457;26;20020;-64
2024/04/10 15:20:48;;;;;;;2.00;1.10;;;;;;;;;;6229725;26;20005;-65
2024/04/10 15:23:40;;;;;;;6.47;3.30;;;;;;;;;;6229288;26;20004;-65
2024/04/10 15:26:31;;;;;;;3.47;1.42;;;;;;;;;;6228898;26;20004;-65
2024/04/10 15:29:22;;;;;;;1.15;0.75;;;;;;;;;;6228467;26;20343;-65
2024/04/10 15:32:13;;;;;;;1.08;0.88;;;;;;;;;;6229300;26;20083;-65
2024/04/10 15:35:04;;;;;;;5.88;0.95;;;;;;;;;;6229245;26;20015;-65
2024/04/10 15:37:55;;;;;;;1.10;1.00;;;;;;;;;;6228967;26;20013;-64
2024/04/10 15:40:55;;;;;;;1.75;1.00;;;;;;;;;;6229363;26;20005;-64
2024/04/10 15:43:47;;;;;;;4.50;1.02;;;;;;;;;;6228402;26;20005;-64
2024/04/10 15:46:38;;;;;;;2.00;1.35;;;;;;;;;;6225951;26;20028;-65
2024/04/10 15:49:29;;;;;;;1.80;0.77;;;;;;;;;;6188815;26;20041;-65
2024/04/10 15:52:21;;;;;;;1.17;1.00;;;;;;;;;;6188693;26;20006;-65
2024/04/10 15:55:31;;;;;;;20.15;2.28;;;;;;;;;;6188936;26;20009;-65
2024/04/10 15:58:23;;;;;;;2.58;1.52;;;;;;;;;;6213160;26;20011;-65
2024/04/10 16:01:14;;;;;;;2.63;1.00;;;;;;;;;;6228007;26;20060;-65
2024/04/10 16:04:05;;;;;;;5.97;1.70;;;;;;;;;;6228797;26;20032;-65
2024/04/10 16:06:57;;;;;;;1.10;0.80;;;;;;;;;;6229031;26;20393;-65
2024/04/10 16:09:48;;;;;;;1.58;0.50;;;;;;;;;;6226579;26;20005;-64
2024/04/10 16:12:39;;;;;;;5.90;1.20;;;;;;;;;;6227655;26;20032;-64
2024/04/10 16:15:31;;;;;;;14.48;0.95;;;;;;;;;;6228995;26;20005;-65
2024/04/10 16:18:22;;;;;;;1.58;0.98;;;;;;;;;;6228250;26;20005;-64
2024/04/10 16:21:14;;;;;;;1.77;0.90;;;;;;;;;;6228346;26;20078;-65
2024/04/10 16:24:07;;;;;;;3.60;0.95;;;;;;;;;;6228352;26;20079;-65
2024/04/10 16:26:58;;;;;;;0.85;0.77;;;;;;;;;;6229039;26;20045;-65
2024/04/10 16:29:49;;;;;;;0.88;0.85;;;;;;;;;;6227277;26;20020;-64
2024/04/10 16:32:40;;;;;;;3.72;1.90;;;;;;;;;;6228140;26;20049;-65
2024/04/10 16:35:31;;;;;;;2.50;1.60;;;;;;;;;;6255450;26;20019;-64
2024/04/10 16:38:22;;;;;;;1.77;1.00;;;;;;;;;;6227796;26;20296;-65
2024/04/10 16:41:15;;;;;;;1.00;0.90;;;;;;;;;;6227969;26;20005;-65
2024/04/10 16:44:07;;;;;;;6.57;1.88;;;;;;;;;;6226984;26;20005;-65
2024/04/10 16:46:59;;;;;;;4.03;2.42;;;;;;;;;;6228534;26;20033;-64
2024/04/10 16:49:50;;;;;;;17.17;5.57;;;;;;;;;;6227210;26;20020;-64
2024/04/10 16:52:41;;;;;;;9.30;5.15;;;;;;;;;;6227687;26;20464;-65
2024/04/10 16:55:32;;;;;;;6.15;4.22;;;;;;;;;;6228221;26;20015;-65
2024/04/10 16:58:24;;;;;;;6.53;3.30;;;;;;;;;;6226886;26;20023;-65
2024/04/10 17:01:15;;;;;;;8.50;4.50;;;;;;;;;;6208466;26;20400;-65
2024/04/10 17:04:06;;;;;;;11.98;3.70;;;;;;;;;;6187481;26;20005;-64
2024/04/10 17:06:57;;;;;;;4.25;2.83;;;;;;;;;;6188087;26;20034;-65
2024/04/10 17:09:48;;;;;;;2.28;1.67;;;;;;;;;;6187224;26;20016;-65
2024/04/10 17:12:39;;;;;;;7.82;3.25;;;;;;;;;;6226771;26;20001;-65
2024/04/10 17:15:30;;;;;;;2.75;1.15;;;;;;;;;;6231678;26;20036;-65